Time;durP1;ratioP1;P1;durP2;ratioP2;P2;SDS_P1;SDS_P2;PMS_P1;PMS_P2;Temp;Humidity;BMP_temperature;BMP_pressure;BME280_temperature;BME280_humidity;BME280_pressure;Samples;Min_cycle;Max_cycle;Signal;HPM_P1;HPM_P2
2022/07/19 11:53:49;;;;;;;1.65;0.30;;;37.70;38.00;;;;;;5034938;27;1741234;-57
2022/07/19 11:56:21;;;;;;;0.15;0.15;;;38.40;36.30;;;;;;5076214;28;20254;-52
2022/07/19 11:58:47;;;;;;;0.30;0.30;;;39.50;34.50;;;;;;5076921;28;20184;-52
2022/07/19 12:01:14;;;;;;;0.30;0.30;;;40.00;33.50;;;;;;5076082;28;20200;-63
2022/07/19 12:03:40;;;;;;;0.30;0.30;;;40.60;33.20;;;;;;5076590;28;20184;-63
2022/07/19 12:06:08;;;;;;;0.10;0.10;;;40.90;32.90;;;;;;5077968;28;20180;-63
2022/07/19 12:08:37;;;;;;;0.00;0.00;;;40.40;31.90;;;;;;5076861;28;20185;-58
2022/07/19 12:11:27;;;;;;;0.43;0.43;;;39.90;30.50;;;;;;5075434;28;20474;-62
2022/07/19 12:13:54;;;;;;;0.10;0.10;;;39.20;32.10;;;;;;5074319;28;20188;-61
2022/07/19 12:16:21;;;;;;;0.20;0.17;;;39.20;32.50;;;;;;5069335;28;20204;-61
2022/07/19 12:18:48;;;;;;;0.20;0.20;;;38.80;32.40;;;;;;5074156;28;20296;-64
2022/07/19 12:21:35;;;;;;;0.00;0.00;;;38.90;32.40;;;;;;5074622;28;20211;-60
2022/07/19 12:24:20;;;;;;;0.10;0.10;;;39.20;31.40;;;;;;5076797;28;20300;-62
2022/07/19 12:26:55;;;;;;;0.00;0.00;;;38.70;32.10;;;;;;5076335;28;20173;-60
2022/07/19 12:29:29;;;;;;;5.50;1.40;;;37.70;32.90;;;;;;5076389;28;20699;-61
2022/07/19 12:32:04;;;;;;;4.00;3.70;;;36.70;34.10;;;;;;5076013;28;20223;-61
2022/07/19 12:34:42;;;;;;;0.20;0.20;;;35.10;35.80;;;;;;5075240;28;20183;-61
2022/07/19 12:37:19;;;;;;;0.82;0.68;;;34.50;36.70;;;;;;5076315;28;20651;-60
2022/07/19 12:40:08;;;;;;;1.88;1.17;;;34.80;37.00;;;;;;5075530;28;20177;-60
2022/07/19 12:42:42;;;;;;;0.45;0.30;;;35.30;36.90;;;;;;5075565;28;20637;-61
2022/07/19 12:45:10;;;;;;;4.68;0.52;;;35.70;36.20;;;;;;5076170;28;20663;-60
2022/07/19 12:47:36;;;;;;;0.00;0.00;;;34.40;36.30;;;;;;5075548;28;20186;-62
2022/07/19 12:50:02;;;;;;;0.10;0.10;;;33.90;37.50;;;;;;5077066;28;20238;-59
2022/07/19 12:52:29;;;;;;;0.00;0.00;;;33.60;37.20;;;;;;5075678;28;20237;-66
2022/07/19 12:54:54;;;;;;;0.38;0.35;;;34.20;37.30;;;;;;5075512;28;20737;-61
2022/07/19 12:57:20;;;;;;;0.00;0.00;;;34.60;37.60;;;;;;5074714;28;20268;-61
2022/07/19 12:59:46;;;;;;;0.08;0.08;;;34.40;37.50;;;;;;5075453;28;20241;-61
2022/07/19 13:02:14;;;;;;;0.55;0.43;;;34.00;37.70;;;;;;5075711;28;20266;-61
2022/07/19 13:04:43;;;;;;;1.35;0.73;;;33.10;38.40;;;;;;5064508;28;20243;-61
2022/07/19 13:07:10;;;;;;;4.60;0.38;;;32.30;40.40;;;;;;5061851;28;20178;-60
2022/07/19 13:09:36;;;;;;;0.65;0.55;;;32.20;40.40;;;;;;5061872;28;20196;-63
2022/07/19 13:12:05;;;;;;;0.00;0.00;;;31.80;40.30;;;;;;5061857;28;20250;-62
2022/07/19 13:14:31;;;;;;;0.10;0.10;;;31.60;41.00;;;;;;5060602;28;20277;-60
2022/07/19 13:16:57;;;;;;;0.00;0.00;;;32.30;41.00;;;;;;5061004;28;20231;-62
2022/07/19 13:19:23;;;;;;;0.25;0.25;;;32.50;39.90;;;;;;5061953;28;20182;-59
2022/07/19 13:21:50;;;;;;;0.00;0.00;;;34.50;39.20;;;;;;5061794;28;20259;-60
2022/07/19 13:24:16;;;;;;;0.00;0.00;;;36.70;35.30;;;;;;5043542;28;20634;-59
2022/07/19 13:26:42;;;;;;;0.00;0.00;;;38.30;33.80;;;;;;5060802;28;20213;-59
2022/07/19 13:29:08;;;;;;;0.15;0.15;;;41.00;31.20;;;;;;5060193;28;20235;-61
2022/07/19 13:31:33;;;;;;;0.10;0.10;;;42.40;30.00;;;;;;5061036;28;20335;-61
2022/07/19 13:33:59;;;;;;;8.88;1.00;;;42.70;28.80;;;;;;5061304;28;20217;-62
2022/07/19 13:36:25;;;;;;;0.10;0.10;;;43.10;29.10;;;;;;5061575;28;20192;-62
2022/07/19 13:38:51;;;;;;;0.73;0.38;;;42.70;29.00;;;;;;5061950;28;20196;-59
2022/07/19 13:41:17;;;;;;;0.30;0.30;;;43.90;28.30;;;;;;5061299;28;20193;-60
2022/07/19 13:43:44;;;;;;;0.60;0.60;;;43.90;27.70;;;;;;5042977;28;20194;-60
2022/07/19 13:46:11;;;;;;;0.10;0.10;;;41.80;29.10;;;;;;5059941;28;20197;-63
2022/07/19 13:48:37;;;;;;;0.50;0.50;;;39.50;29.80;;;;;;5060982;28;20190;-60
2022/07/19 13:51:03;;;;;;;0.82;0.80;;;37.90;31.10;;;;;;5061612;28;20213;-59
2022/07/19 13:53:29;;;;;;;0.20;0.20;;;38.30;32.80;;;;;;5060506;28;20331;-69
2022/07/19 13:55:54;;;;;;;0.20;0.20;;;40.40;30.40;;;;;;5043697;28;20193;-60
2022/07/19 13:58:20;;;;;;;0.20;0.20;;;42.90;29.30;;;;;;5043045;28;20194;-60
2022/07/19 14:00:46;;;;;;;0.30;0.30;;;43.60;28.20;;;;;;5060051;28;20199;-62
2022/07/19 14:03:17;;;;;;;0.10;0.10;;;44.40;27.40;;;;;;5061057;28;20208;-61
2022/07/19 14:05:46;;;;;;;0.90;0.68;;;45.40;26.90;;;;;;5059757;28;20692;-62
2022/07/19 14:08:13;;;;;;;0.10;0.10;;;46.20;26.60;;;;;;5060311;28;20188;-62
2022/07/19 14:10:39;;;;;;;0.20;0.20;;;45.20;26.10;;;;;;5060396;28;20265;-61
2022/07/19 14:13:05;;;;;;;0.20;0.20;;;45.70;26.40;;;;;;5060902;28;20220;-60
